Time;durP1;ratioP1;P1;durP2;ratioP2;P2;SDS_P1;SDS_P2;PMS_P1;PMS_P2;Temp;Humidity;BMP_temperature;BMP_pressure;BME280_temperature;BME280_humidity;BME280_pressure;Samples;Min_cycle;Max_cycle;Signal;HPM_P1;HPM_P2
2022/11/26 00:01:13;;;;;;;16.60;10.57;;;7.40;99.90;;;;;;5076950;28;20904;-70
2022/11/26 00:03:39;;;;;;;18.20;10.47;;;7.40;99.90;;;;;;5076094;28;20655;-75
2022/11/26 00:06:17;;;;;;;13.63;8.90;;;7.30;99.90;;;;;;5076684;28;20447;-70
2022/11/26 00:08:43;;;;;;;18.30;10.43;;;7.30;99.90;;;;;;5076420;28;20688;-74
2022/11/26 00:11:14;;;;;;;16.80;10.00;;;7.20;99.90;;;;;;5076785;28;20393;-74
2022/11/26 00:13:40;;;;;;;14.10;9.53;;;7.20;99.90;;;;;;5075799;28;20185;-70
2022/11/26 00:16:11;;;;;;;18.90;9.07;;;7.20;99.90;;;;;;5076662;28;20420;-74
2022/11/26 00:18:36;;;;;;;11.17;9.20;;;7.20;99.90;;;;;;5075593;28;20182;-74
2022/11/26 00:21:03;;;;;;;15.97;9.53;;;7.10;99.90;;;;;;5076592;28;20506;-75
2022/11/26 00:23:29;;;;;;;20.70;10.00;;;7.10;99.90;;;;;;5076162;28;20162;-75
2022/11/26 00:25:58;;;;;;;12.90;8.80;;;7.00;99.90;;;;;;5074839;28;20437;-74
2022/11/26 00:28:35;;;;;;;15.37;9.73;;;7.00;99.90;;;;;;5076303;28;20444;-70
2022/11/26 00:31:05;;;;;;;14.30;9.03;;;6.90;99.90;;;;;;5076402;28;20396;-70
2022/11/26 00:33:31;;;;;;;15.87;8.87;;;6.80;99.90;;;;;;5075954;28;20389;-70
2022/11/26 00:36:01;;;;;;;20.57;8.77;;;6.80;99.90;;;;;;5074604;28;20450;-70
2022/11/26 00:38:28;;;;;;;17.87;8.90;;;6.80;99.90;;;;;;5076265;28;20217;-70
2022/11/26 00:40:54;;;;;;;19.00;8.77;;;6.80;99.90;;;;;;5075240;28;20766;-74
2022/11/26 00:43:20;;;;;;;16.23;8.90;;;6.80;99.90;;;;;;5076089;28;20743;-75
2022/11/26 00:45:49;;;;;;;14.90;8.33;;;6.90;99.90;;;;;;5074839;28;20526;-74
2022/11/26 00:48:15;;;;;;;13.73;8.73;;;6.80;99.90;;;;;;5076233;28;20190;-70
2022/11/26 00:50:45;;;;;;;12.90;7.30;;;6.80;99.90;;;;;;5076067;28;20479;-70
2022/11/26 00:53:18;;;;;;;15.67;7.47;;;6.80;99.90;;;;;;5076163;28;20408;-74
2022/11/26 00:55:47;;;;;;;11.87;7.90;;;6.80;99.90;;;;;;5075137;28;20398;-74
2022/11/26 00:58:26;;;;;;;10.73;9.17;;;6.80;99.90;;;;;;5074852;28;20395;-71
2022/11/26 01:00:53;;;;;;;11.80;8.03;;;6.80;99.90;;;;;;5075903;28;20370;-70
2022/11/26 01:03:19;;;;;;;18.43;10.60;;;6.80;99.90;;;;;;5075308;28;20400;-75
2022/11/26 01:05:49;;;;;;;11.77;8.77;;;6.90;99.90;;;;;;5074770;28;20465;-70
2022/11/26 01:08:24;;;;;;;13.57;8.27;;;6.90;99.90;;;;;;5074962;28;20968;-74
2022/11/26 01:10:50;;;;;;;16.70;7.60;;;7.00;99.90;;;;;;5075756;28;20849;-70
2022/11/26 01:13:16;;;;;;;15.27;8.50;;;7.00;99.90;;;;;;5075680;28;20389;-70
2022/11/26 01:15:42;;;;;;;16.13;9.90;;;7.00;99.90;;;;;;5074623;28;20212;-71
2022/11/26 01:18:16;;;;;;;10.70;7.60;;;7.00;99.90;;;;;;5075558;28;20172;-74
2022/11/26 01:20:42;;;;;;;14.70;8.10;;;7.00;99.90;;;;;;5075638;28;20525;-75
2022/11/26 01:23:11;;;;;;;15.83;8.20;;;6.90;99.90;;;;;;5075092;28;20401;-75
2022/11/26 01:25:38;;;;;;;21.83;8.47;;;6.90;99.90;;;;;;5074432;28;20495;-74
2022/11/26 01:28:04;;;;;;;20.60;8.67;;;6.90;99.90;;;;;;5075227;28;20513;-70
2022/11/26 01:30:32;;;;;;;13.63;8.23;;;6.90;99.90;;;;;;5075498;28;20397;-70
2022/11/26 01:33:01;;;;;;;9.33;7.40;;;6.80;99.90;;;;;;5075026;28;20405;-70
2022/11/26 01:35:27;;;;;;;12.77;7.87;;;6.80;99.90;;;;;;5074263;28;20415;-74
2022/11/26 01:37:56;;;;;;;16.43;8.27;;;6.90;99.90;;;;;;5075120;28;20871;-75
2022/11/26 01:40:22;;;;;;;21.43;8.90;;;6.90;99.90;;;;;;5074626;28;20408;-70
2022/11/26 01:43:11;;;;;;;9.80;6.53;;;6.90;99.90;;;;;;5075148;28;20951;-75
2022/11/26 01:45:36;;;;;;;11.90;7.60;;;6.80;99.90;;;;;;5073989;28;20252;-70
2022/11/26 01:48:19;;;;;;;10.50;6.10;;;6.80;99.90;;;;;;5074987;28;20551;-70
2022/11/26 01:50:58;;;;;;;11.10;7.20;;;6.70;99.90;;;;;;5075106;28;20501;-70
2022/11/26 01:53:46;;;;;;;8.80;7.00;;;6.60;99.90;;;;;;5074893;28;20437;-74
2022/11/26 01:56:31;;;;;;;7.53;6.70;;;6.60;99.90;;;;;;5074508;28;20773;-74
2022/11/26 01:59:09;;;;;;;8.83;6.23;;;6.60;99.90;;;;;;5074588;28;20808;-70
2022/11/26 02:01:35;;;;;;;10.00;6.07;;;6.60;99.90;;;;;;5074875;28;20396;-70
2022/11/26 02:04:18;;;;;;;14.00;6.30;;;6.50;99.90;;;;;;5073846;28;20424;-75
2022/11/26 02:06:47;;;;;;;7.67;6.00;;;6.50;99.90;;;;;;5074444;28;20955;-70
2022/11/26 02:09:13;;;;;;;5.53;5.03;;;6.50;99.90;;;;;;5074543;28;20444;-74
2022/11/26 02:11:39;;;;;;;8.67;5.90;;;6.40;99.90;;;;;;5073390;28;20791;-70
2022/11/26 02:14:14;;;;;;;7.23;4.90;;;6.40;99.90;;;;;;5073510;28;20401;-71
2022/11/26 02:17:09;;;;;;;7.00;5.40;;;6.30;99.90;;;;;;5074054;28;20456;-72
2022/11/26 02:19:56;;;;;;;5.90;4.73;;;6.30;99.90;;;;;;5053002;28;20447;-74
2022/11/26 02:22:45;;;;;;;13.23;5.83;;;6.20;99.90;;;;;;5074225;28;20504;-70
2022/11/26 02:25:30;;;;;;;9.83;4.93;;;6.20;99.90;;;;;;5073412;28;20379;-74
2022/11/26 02:28:14;;;;;;;6.50;4.93;;;6.10;99.90;;;;;;5074101;28;20501;-70
2022/11/26 02:30:57;;;;;;;7.93;5.87;;;6.00;99.90;;;;;;5074007;28;20393;-70
2022/11/26 02:33:30;;;;;;;5.53;4.67;;;6.00;99.90;;;;;;5074126;28;20400;-74
2022/11/26 02:36:06;;;;;;;11.83;4.73;;;6.00;99.90;;;;;;5072837;28;20489;-74
2022/11/26 02:38:36;;;;;;;5.73;4.70;;;6.00;99.90;;;;;;5073814;28;20753;-70
2022/11/26 02:41:02;;;;;;;5.70;4.67;;;5.80;99.90;;;;;;5074148;28;20435;-74
2022/11/26 02:43:28;;;;;;;6.93;4.83;;;5.80;99.90;;;;;;5072375;28;20925;-75
2022/11/26 02:46:11;;;;;;;6.67;4.80;;;5.70;99.90;;;;;;5071868;28;20277;-70
2022/11/26 02:48:42;;;;;;;10.47;5.13;;;5.70;99.90;;;;;;5073797;28;20442;-73
2022/11/26 02:51:13;;;;;;;4.93;4.23;;;5.60;99.90;;;;;;5074080;28;20472;-70
2022/11/26 02:53:39;;;;;;;13.50;4.30;;;5.60;99.90;;;;;;5072969;28;20400;-71
2022/11/26 02:56:11;;;;;;;7.97;4.53;;;5.50;99.90;;;;;;5073388;28;20545;-74
2022/11/26 02:58:37;;;;;;;10.43;4.13;;;5.50;99.90;;;;;;5073657;28;20800;-70
2022/11/26 03:01:09;;;;;;;6.83;4.67;;;5.50;99.90;;;;;;5073764;28;20401;-74
2022/11/26 03:03:42;;;;;;;5.93;3.60;;;5.50;99.90;;;;;;5073596;28;20405;-70
2022/11/26 03:06:11;;;;;;;6.37;3.67;;;5.50;99.90;;;;;;5073502;28;20509;-74
2022/11/26 03:08:37;;;;;;;8.97;4.27;;;5.50;99.90;;;;;;5073453;28;20469;-71
2022/11/26 03:11:03;;;;;;;10.40;5.00;;;5.50;99.90;;;;;;5072456;28;20401;-70
2022/11/26 03:13:30;;;;;;;3.63;3.30;;;5.50;99.90;;;;;;5072892;28;20401;-73
2022/11/26 03:15:56;;;;;;;6.30;3.77;;;5.60;99.90;;;;;;5072770;28;20424;-74
2022/11/26 03:18:21;;;;;;;11.57;4.57;;;5.60;99.90;;;;;;5073596;28;20411;-73
2022/11/26 03:20:47;;;;;;;9.17;5.07;;;5.60;99.90;;;;;;5072330;28;20485;-70
2022/11/26 03:23:13;;;;;;;6.47;4.80;;;5.70;99.90;;;;;;5072139;28;20174;-74
2022/11/26 03:25:42;;;;;;;7.23;4.60;;;5.70;99.90;;;;;;5072372;28;20670;-70
2022/11/26 03:28:07;;;;;;;7.20;4.27;;;5.80;99.90;;;;;;5073167;28;20194;-70
2022/11/26 03:30:33;;;;;;;6.70;4.47;;;5.80;99.90;;;;;;5072614;28;20870;-70
2022/11/26 03:32:59;;;;;;;9.07;4.07;;;5.80;99.90;;;;;;5071667;28;20170;-71
2022/11/26 03:35:28;;;;;;;9.53;4.07;;;5.90;99.90;;;;;;5071063;28;20641;-74
2022/11/26 03:37:53;;;;;;;12.90;4.13;;;6.00;99.90;;;;;;5071943;28;20184;-73
2022/11/26 03:40:19;;;;;;;7.20;4.00;;;6.00;99.90;;;;;;5071864;28;20416;-73
2022/11/26 03:42:45;;;;;;;13.33;4.40;;;6.10;99.90;;;;;;5073304;28;20405;-70
2022/11/26 03:45:11;;;;;;;9.33;4.30;;;6.10;99.90;;;;;;5072146;28;20178;-75
2022/11/26 03:47:37;;;;;;;8.07;5.27;;;6.20;99.90;;;;;;5072707;28;20185;-74
2022/11/26 03:50:05;;;;;;;15.20;4.30;;;6.20;99.90;;;;;;5072995;28;20407;-74
2022/11/26 03:52:31;;;;;;;7.63;3.80;;;6.30;99.90;;;;;;5072191;28;20554;-73
2022/11/26 03:54:56;;;;;;;6.27;4.50;;;6.30;99.90;;;;;;5072101;28;20495;-74
2022/11/26 03:57:22;;;;;;;7.80;4.73;;;6.40;99.90;;;;;;5072840;28;20190;-74
2022/11/26 03:59:48;;;;;;;8.43;4.17;;;6.40;99.90;;;;;;5073288;28;20177;-75
2022/11/26 04:02:14;;;;;;;16.83;5.43;;;6.40;99.90;;;;;;5073157;28;20766;-74
2022/11/26 04:04:39;;;;;;;12.50;3.60;;;6.40;99.90;;;;;;5072141;28;20171;-70
2022/11/26 04:07:05;;;;;;;18.30;5.50;;;6.40;99.90;;;;;;5072682;28;20220;-74
2022/11/26 04:09:31;;;;;;;15.13;5.90;;;6.50;99.90;;;;;;5072633;28;20209;-74
2022/11/26 04:11:57;;;;;;;10.47;4.93;;;6.60;99.90;;;;;;5073026;28;20224;-74
2022/11/26 04:14:23;;;;;;;6.37;4.53;;;6.60;99.90;;;;;;5072170;28;20178;-74
2022/11/26 04:16:49;;;;;;;18.73;5.47;;;6.70;99.90;;;;;;5072759;28;20621;-75
2022/11/26 04:19:14;;;;;;;8.00;4.27;;;6.70;99.90;;;;;;5071772;28;20416;-70
2022/11/26 04:21:40;;;;;;;4.83;4.10;;;6.70;99.90;;;;;;5072899;28;20178;-71
2022/11/26 04:24:08;;;;;;;9.20;5.50;;;6.80;99.90;;;;;;5071971;28;20700;-75
2022/11/26 04:26:34;;;;;;;11.40;5.73;;;6.80;99.90;;;;;;5071273;28;20205;-71
2022/11/26 04:29:00;;;;;;;10.47;5.13;;;6.90;99.90;;;;;;5072396;28;20452;-74
2022/11/26 04:31:25;;;;;;;17.73;6.13;;;6.90;99.90;;;;;;5072658;28;20208;-74
2022/11/26 04:33:51;;;;;;;16.90;4.80;;;6.90;99.90;;;;;;5071999;28;20174;-70
2022/11/26 04:36:17;;;;;;;9.60;4.90;;;6.90;99.90;;;;;;5072865;28;20320;-70
2022/11/26 04:38:42;;;;;;;13.67;6.30;;;7.00;99.90;;;;;;5071651;28;20206;-74
2022/11/26 04:41:08;;;;;;;19.10;6.80;;;7.00;99.90;;;;;;5071579;28;20583;-70
2022/11/26 04:43:34;;;;;;;12.70;5.40;;;7.00;99.90;;;;;;5073309;28;20178;-70
2022/11/26 04:46:00;;;;;;;15.13;6.10;;;7.00;99.90;;;;;;5074139;28;20217;-70
2022/11/26 04:48:25;;;;;;;10.60;5.53;;;7.10;99.90;;;;;;5075600;28;20206;-75
2022/11/26 04:50:54;;;;;;;16.03;5.33;;;7.10;99.90;;;;;;5076169;28;20215;-75
2022/11/26 04:53:20;;;;;;;16.47;5.90;;;7.10;99.90;;;;;;5074977;28;20171;-70
2022/11/26 04:55:51;;;;;;;11.17;5.13;;;7.10;99.90;;;;;;5075260;28;21880;-75
2022/11/26 04:58:17;;;;;;;28.73;5.50;;;7.20;99.90;;;;;;5076087;28;20413;-70
2022/11/26 05:00:43;;;;;;;12.70;6.43;;;7.10;99.90;;;;;;5074630;28;20455;-75
2022/11/26 05:03:09;;;;;;;11.43;5.50;;;7.20;99.90;;;;;;5074796;28;20400;-70
2022/11/26 05:05:35;;;;;;;15.03;6.20;;;7.20;99.90;;;;;;5073263;28;20528;-75
2022/11/26 05:08:01;;;;;;;11.03;4.93;;;7.20;99.90;;;;;;5075811;28;20654;-70
2022/11/26 05:10:27;;;;;;;16.37;6.13;;;7.20;99.90;;;;;;5075772;28;20400;-71
2022/11/26 05:12:53;;;;;;;7.23;5.07;;;7.20;99.90;;;;;;5075857;28;20474;-74
2022/11/26 05:15:18;;;;;;;18.33;6.93;;;7.30;99.90;;;;;;5074892;28;20167;-70
2022/11/26 05:17:44;;;;;;;17.43;6.60;;;7.30;1.00;;;;;;5075561;28;20186;-71
2022/11/26 05:20:10;;;;;;;17.73;6.10;;;7.40;1.00;;;;;;5075599;28;20159;-75
2022/11/26 05:22:36;;;;;;;15.43;6.50;;;7.40;1.00;;;;;;5075390;28;20539;-74
2022/11/26 05:25:02;;;;;;;9.77;6.27;;;7.50;1.00;;;;;;5074325;28;20397;-75
2022/11/26 05:27:28;;;;;;;10.07;5.60;;;7.60;1.00;;;;;;5075286;28;20191;-70
2022/11/26 05:29:54;;;;;;;20.83;6.47;;;7.50;1.00;;;;;;5074260;28;20419;-70
2022/11/26 05:32:20;;;;;;;36.20;6.67;;;7.60;1.00;;;;;;5074093;28;20190;-75
2022/11/26 05:34:45;;;;;;;36.83;7.10;;;7.60;1.00;;;;;;5073106;28;20781;-75
2022/11/26 05:37:11;;;;;;;17.43;6.80;;;7.60;1.00;;;;;;5075245;28;20187;-75
2022/11/26 05:39:37;;;;;;;16.87;7.50;;;7.60;1.00;;;;;;5074716;28;20200;-71
2022/11/26 05:42:03;;;;;;;17.20;7.70;;;7.70;1.00;;;;;;5075049;28;20764;-75
2022/11/26 05:44:28;;;;;;;12.80;7.57;;;7.70;1.00;;;;;;5074311;28;20623;-70
2022/11/26 05:46:54;;;;;;;25.43;8.60;;;7.80;1.00;;;;;;5074939;28;20869;-71
2022/11/26 05:49:20;;;;;;;32.20;8.20;;;7.80;1.00;;;;;;5073615;28;20290;-75
2022/11/26 05:51:46;;;;;;;20.93;7.30;;;7.80;1.00;;;;;;5074887;28;20232;-71
2022/11/26 05:54:13;;;;;;;22.23;7.60;;;7.80;1.00;;;;;;5073412;28;20169;-71
2022/11/26 05:56:38;;;;;;;16.33;7.53;;;7.80;1.00;;;;;;5073610;28;20200;-75
2022/11/26 05:59:04;;;;;;;14.97;7.70;;;7.80;1.00;;;;;;5074607;28;20409;-70
2022/11/26 06:01:30;;;;;;;16.43;8.17;;;7.80;1.00;;;;;;5074941;28;20186;-70
2022/11/26 06:03:56;;;;;;;25.90;8.27;;;7.80;1.00;;;;;;5073851;28;20278;-75
2022/11/26 06:06:21;;;;;;;20.00;7.30;;;7.80;1.00;;;;;;5074362;28;20668;-70
2022/11/26 06:08:47;;;;;;;22.70;6.80;;;7.80;1.00;;;;;;5074662;28;20194;-69
2022/11/26 06:11:13;;;;;;;16.40;6.90;;;7.70;1.00;;;;;;5074787;28;20177;-69
2022/11/26 06:13:39;;;;;;;12.53;6.47;;;7.70;1.00;;;;;;5071861;28;20215;-75
2022/11/26 06:16:05;;;;;;;13.73;7.00;;;7.60;1.00;;;;;;5074444;28;20201;-76
2022/11/26 06:18:31;;;;;;;14.90;6.70;;;7.60;1.00;;;;;;5074311;28;20412;-75
2022/11/26 06:21:05;;;;;;;11.53;7.23;;;7.50;1.00;;;;;;5073044;28;20416;-69
2022/11/26 06:23:31;;;;;;;11.90;7.23;;;7.50;1.00;;;;;;5074035;28;20170;-76
2022/11/26 06:26:00;;;;;;;19.93;7.20;;;7.40;1.00;;;;;;5073555;28;20519;-69
2022/11/26 06:28:26;;;;;;;21.23;6.90;;;7.30;1.00;;;;;;5074104;28;20878;-68
2022/11/26 06:30:52;;;;;;;16.33;7.60;;;7.30;1.00;;;;;;5073144;28;20413;-69
2022/11/26 06:33:18;;;;;;;14.13;6.43;;;7.20;1.00;;;;;;5072693;28;20444;-74
2022/11/26 06:35:43;;;;;;;15.03;6.03;;;7.20;1.00;;;;;;5073215;28;20623;-75
2022/11/26 06:38:09;;;;;;;16.13;7.97;;;7.20;1.00;;;;;;5074029;28;20508;-75
2022/11/26 06:40:35;;;;;;;13.20;7.37;;;7.10;1.00;;;;;;5073905;28;20170;-75
2022/11/26 06:43:01;;;;;;;12.70;7.80;;;7.10;1.00;;;;;;5072926;28;20204;-75
2022/11/26 06:45:26;;;;;;;14.83;7.10;;;7.00;1.00;;;;;;5071906;28;20217;-75
2022/11/26 06:47:52;;;;;;;11.13;6.07;;;7.00;1.00;;;;;;5072775;28;20201;-69
2022/11/26 06:50:20;;;;;;;9.50;7.40;;;6.90;1.00;;;;;;5073733;28;20172;-75
2022/11/26 06:52:51;;;;;;;13.80;7.83;;;6.80;1.00;;;;;;5073262;28;20413;-75
2022/11/26 06:55:17;;;;;;;8.70;7.20;;;6.70;1.00;;;;;;5072920;28;20411;-75
2022/11/26 06:57:42;;;;;;;12.33;7.13;;;6.70;1.00;;;;;;5073692;28;20515;-75
2022/11/26 07:00:09;;;;;;;9.57;7.30;;;6.70;1.00;;;;;;5073921;28;20167;-70
2022/11/26 07:02:35;;;;;;;8.07;6.60;;;6.60;1.00;;;;;;5073722;28;20166;-70
2022/11/26 07:05:01;;;;;;;13.00;7.57;;;6.50;1.00;;;;;;5071254;28;20774;-75
2022/11/26 07:07:27;;;;;;;10.97;7.10;;;6.50;1.00;;;;;;5072768;28;20417;-75
2022/11/26 07:09:53;;;;;;;11.27;7.43;;;6.30;1.00;;;;;;5073473;28;20487;-74
2022/11/26 07:12:18;;;;;;;13.37;7.43;;;6.30;1.00;;;;;;5072851;28;20200;-75
2022/11/26 07:14:44;;;;;;;9.10;7.00;;;6.30;1.00;;;;;;5072463;28;20527;-74
2022/11/26 07:17:10;;;;;;;7.57;6.43;;;6.40;1.00;;;;;;5073614;28;20610;-72
2022/11/26 07:19:35;;;;;;;12.20;7.87;;;6.40;1.00;;;;;;5073479;28;20213;-75
2022/11/26 07:22:01;;;;;;;16.50;9.47;;;6.50;1.00;;;;;;5073131;28;20265;-75
2022/11/26 07:24:27;;;;;;;8.10;7.03;;;6.50;1.00;;;;;;5072644;28;20551;-75
2022/11/26 07:26:53;;;;;;;9.57;8.07;;;6.40;1.00;;;;;;5073229;28;20424;-75
2022/11/26 07:29:19;;;;;;;9.50;6.77;;;6.50;1.00;;;;;;5071862;28;20671;-71
2022/11/26 07:31:44;;;;;;;10.00;7.67;;;6.50;1.00;;;;;;5073159;28;20250;-74
2022/11/26 07:34:10;;;;;;;9.70;7.50;;;6.50;1.00;;;;;;5072321;28;20504;-71
2022/11/26 07:36:42;;;;;;;10.30;8.10;;;6.50;1.00;;;;;;5073264;28;20194;-75
2022/11/26 07:39:09;;;;;;;9.63;7.83;;;6.40;1.00;;;;;;5073157;28;20178;-74
2022/11/26 07:41:35;;;;;;;8.00;7.20;;;6.40;1.00;;;;;;5073350;28;20405;-70
2022/11/26 07:44:01;;;;;;;11.13;8.30;;;6.40;1.00;;;;;;5071075;28;20928;-75
2022/11/26 07:46:26;;;;;;;16.20;9.07;;;6.40;1.00;;;;;;5073082;28;20280;-75
2022/11/26 07:48:54;;;;;;;11.20;9.23;;;6.40;1.00;;;;;;5072851;28;20715;-71
2022/11/26 07:51:26;;;;;;;13.77;9.00;;;6.40;1.00;;;;;;5071607;28;20239;-71
2022/11/26 07:53:52;;;;;;;9.97;8.30;;;6.40;1.00;;;;;;5072176;28;20409;-75
2022/11/26 07:56:19;;;;;;;12.07;8.07;;;6.50;1.00;;;;;;5072974;28;20438;-71
2022/11/26 07:58:45;;;;;;;9.70;7.80;;;6.50;1.00;;;;;;5073065;28;20412;-71
2022/11/26 08:01:13;;;;;;;11.90;9.13;;;6.50;1.00;;;;;;5073065;28;20386;-75
2022/11/26 08:03:40;;;;;;;8.50;6.73;;;6.50;1.00;;;;;;5072249;28;20404;-72
2022/11/26 08:06:11;;;;;;;12.10;8.30;;;6.60;1.00;;;;;;5072833;28;20451;-75
2022/11/26 08:08:37;;;;;;;11.50;7.83;;;6.60;1.00;;;;;;5072552;28;20493;-71
2022/11/26 08:11:10;;;;;;;12.73;9.30;;;6.70;1.00;;;;;;5072883;28;20401;-75
2022/11/26 08:13:36;;;;;;;9.97;8.10;;;6.70;99.90;;;;;;5072576;28;20492;-78
2022/11/26 08:16:01;;;;;;;11.20;7.80;;;6.60;99.90;;;;;;5072547;28;20519;-77
2022/11/26 08:18:27;;;;;;;12.23;7.80;;;6.70;99.90;;;;;;5075512;28;20527;-80
2022/11/26 08:20:57;;;;;;;10.03;8.07;;;6.70;99.90;;;;;;5076815;28;20710;-81
2022/11/26 08:23:24;;;;;;;7.93;7.17;;;6.70;99.90;;;;;;5076449;28;20534;-80
2022/11/26 08:25:50;;;;;;;9.47;7.23;;;6.70;99.90;;;;;;5075827;28;20771;-68
2022/11/26 08:28:17;;;;;;;7.07;6.40;;;6.70;99.90;;;;;;5076249;28;20459;-69
2022/11/26 08:30:43;;;;;;;8.47;7.50;;;6.70;99.90;;;;;;5076255;28;20397;-68
2022/11/26 08:33:09;;;;;;;11.80;7.83;;;6.70;99.90;;;;;;5076428;28;20395;-78
2022/11/26 08:35:35;;;;;;;9.63;8.63;;;6.70;99.90;;;;;;5075416;28;20162;-67
2022/11/26 08:38:00;;;;;;;11.20;8.50;;;6.60;99.90;;;;;;5076402;28;20230;-80
2022/11/26 08:40:26;;;;;;;10.77;8.53;;;6.60;99.90;;;;;;5076305;28;20495;-68
2022/11/26 08:42:52;;;;;;;10.17;7.53;;;6.70;99.90;;;;;;5074888;28;20189;-79
2022/11/26 08:45:18;;;;;;;13.10;8.57;;;6.70;99.90;;;;;;5075162;28;20405;-73
2022/11/26 08:47:44;;;;;;;12.30;9.27;;;6.60;99.90;;;;;;5075823;28;20233;-67
2022/11/26 08:50:10;;;;;;;11.17;9.90;;;6.70;99.90;;;;;;5076108;28;20429;-79
2022/11/26 08:52:36;;;;;;;13.63;8.77;;;6.60;99.90;;;;;;5076169;28;20173;-79
2022/11/26 08:55:02;;;;;;;10.90;8.30;;;6.60;99.90;;;;;;5075368;28;20499;-67
2022/11/26 08:57:28;;;;;;;12.00;9.70;;;6.60;99.90;;;;;;5075771;28;20186;-76
2022/11/26 08:59:54;;;;;;;11.70;9.87;;;6.60;99.90;;;;;;5074880;28;20413;-67
2022/11/26 09:02:21;;;;;;;10.83;9.17;;;6.50;99.90;;;;;;5075491;28;20519;-70
2022/11/26 09:04:47;;;;;;;10.57;9.10;;;6.50;99.90;;;;;;5074180;28;20443;-79
2022/11/26 09:07:13;;;;;;;10.50;8.10;;;6.50;99.90;;;;;;5075864;28;20472;-67
2022/11/26 09:09:38;;;;;;;12.93;8.67;;;6.50;99.90;;;;;;5074417;28;20204;-69
2022/11/26 09:12:04;;;;;;;12.83;8.60;;;6.60;99.90;;;;;;5074627;28;20245;-77
2022/11/26 09:14:35;;;;;;;10.83;9.57;;;6.70;99.90;;;;;;5075037;28;20162;-67
2022/11/26 09:17:01;;;;;;;21.70;9.00;;;6.70;99.90;;;;;;5075722;28;20428;-67
2022/11/26 09:19:27;;;;;;;9.60;8.30;;;6.70;99.90;;;;;;5075659;28;20400;-77
2022/11/26 09:21:53;;;;;;;15.67;10.30;;;6.70;99.90;;;;;;5075005;28;20261;-68
2022/11/26 09:24:20;;;;;;;10.87;8.77;;;6.70;99.90;;;;;;5074933;28;20516;-78
2022/11/26 09:26:49;;;;;;;23.87;13.63;;;6.80;99.90;;;;;;5075326;28;20820;-67
2022/11/26 09:29:18;;;;;;;18.77;11.60;;;6.80;99.90;;;;;;5074736;28;20497;-78
2022/11/26 09:31:46;;;;;;;17.87;11.17;;;6.90;99.90;;;;;;5075275;28;20480;-70
2022/11/26 09:34:12;;;;;;;16.00;11.10;;;6.90;99.90;;;;;;5074493;28;20389;-77
2022/11/26 09:36:37;;;;;;;23.50;11.47;;;7.00;99.90;;;;;;5075224;28;20462;-77
2022/11/26 09:39:04;;;;;;;16.87;12.03;;;7.00;99.90;;;;;;5074960;28;20439;-76
2022/11/26 09:41:36;;;;;;;14.80;10.73;;;7.00;99.90;;;;;;5074923;28;20170;-67
2022/11/26 09:44:22;;;;;;;16.97;10.30;;;7.00;99.90;;;;;;5074386;28;20758;-68
2022/11/26 09:46:53;;;;;;;14.93;10.10;;;7.10;99.90;;;;;;5074992;28;20416;-66
2022/11/26 09:49:20;;;;;;;16.30;10.50;;;7.10;99.90;;;;;;5074945;28;20642;-77
2022/11/26 09:51:50;;;;;;;18.57;11.17;;;7.10;99.90;;;;;;5074669;28;20416;-76
2022/11/26 09:54:20;;;;;;;15.80;9.77;;;7.20;99.90;;;;;;5074236;28;20483;-67
2022/11/26 09:56:49;;;;;;;14.87;9.17;;;7.20;99.90;;;;;;5073236;28;20834;-67
2022/11/26 09:59:17;;;;;;;17.53;10.23;;;7.30;99.90;;;;;;5074496;28;20413;-67
2022/11/26 10:01:43;;;;;;;22.70;12.50;;;7.20;99.90;;;;;;5074825;28;20546;-68
2022/11/26 10:04:22;;;;;;;18.37;9.90;;;7.20;99.90;;;;;;5073987;28;20499;-74
2022/11/26 10:06:57;;;;;;;12.50;9.23;;;7.20;99.90;;;;;;5074600;28;20209;-67
2022/11/26 10:10:00;;;;;;;23.17;10.60;;;7.20;99.90;;;;;;5074576;28;20550;-76
2022/11/26 10:12:52;;;;;;;15.70;10.43;;;7.30;99.90;;;;;;5074609;28;20757;-77
2022/11/26 10:15:34;;;;;;;26.80;11.20;;;7.30;99.90;;;;;;5073923;28;20446;-67
2022/11/26 10:18:15;;;;;;;17.23;10.70;;;7.30;99.90;;;;;;5073905;28;20481;-76
2022/11/26 10:21:04;;;;;;;20.53;11.50;;;7.30;99.90;;;;;;5074519;28;20453;-67
2022/11/26 10:23:38;;;;;;;24.70;12.27;;;7.30;99.90;;;;;;5073692;28;20459;-76
2022/11/26 10:26:12;;;;;;;19.20;11.60;;;7.30;99.90;;;;;;5074184;28;20422;-68
2022/11/26 10:28:46;;;;;;;18.90;11.53;;;7.40;99.90;;;;;;5074167;28;20476;-66
2022/11/26 10:31:16;;;;;;;20.07;10.23;;;7.30;99.90;;;;;;5074222;28;20458;-74
2022/11/26 10:34:00;;;;;;;18.23;10.40;;;7.30;99.90;;;;;;5073414;28;20457;-75
2022/11/26 10:36:34;;;;;;;20.73;12.40;;;7.30;99.90;;;;;;5073739;28;20438;-76
2022/11/26 10:39:00;;;;;;;23.60;11.87;;;7.30;99.90;;;;;;5073024;28;20423;-77
2022/11/26 10:41:29;;;;;;;19.57;12.03;;;7.30;99.90;;;;;;5073928;28;20412;-77
2022/11/26 10:43:56;;;;;;;17.27;10.67;;;7.30;99.90;;;;;;5073282;28;20408;-66
2022/11/26 10:46:33;;;;;;;22.87;11.93;;;7.30;99.90;;;;;;5073761;28;20908;-76
2022/11/26 10:49:26;;;;;;;23.90;12.20;;;7.40;99.90;;;;;;5073933;28;20520;-67
2022/11/26 10:52:00;;;;;;;23.53;12.50;;;7.40;99.90;;;;;;5073483;28;20428;-76
2022/11/26 10:54:33;;;;;;;21.77;9.90;;;7.50;99.90;;;;;;5072938;28;20423;-76
2022/11/26 10:57:05;;;;;;;31.60;12.60;;;7.50;99.90;;;;;;5073688;28;20511;-76
2022/11/26 10:59:43;;;;;;;21.40;12.73;;;7.50;99.90;;;;;;5073677;28;20423;-66
2022/11/26 11:02:23;;;;;;;24.50;12.90;;;7.40;99.90;;;;;;5073663;28;20379;-66
2022/11/26 11:04:52;;;;;;;22.50;13.23;;;7.50;99.90;;;;;;5072974;28;20459;-75
2022/11/26 11:07:41;;;;;;;18.80;11.10;;;7.50;99.90;;;;;;5073450;28;20444;-67
2022/11/26 11:10:10;;;;;;;16.30;9.97;;;7.50;99.90;;;;;;5073180;28;20409;-67
2022/11/26 11:13:01;;;;;;;26.83;11.40;;;7.50;99.90;;;;;;5073533;28;20937;-67
2022/11/26 11:15:30;;;;;;;18.03;11.77;;;7.60;99.90;;;;;;5072800;28;20394;-67
2022/11/26 11:18:06;;;;;;;26.93;12.00;;;7.50;99.90;;;;;;5073528;28;20484;-67
2022/11/26 11:20:39;;;;;;;17.70;11.63;;;7.60;99.90;;;;;;5072225;28;20396;-67
2022/11/26 11:23:11;;;;;;;30.30;13.50;;;7.60;99.90;;;;;;5073474;28;20371;-78
2022/11/26 11:25:43;;;;;;;25.33;13.03;;;7.60;99.90;;;;;;5072583;28;20396;-76
2022/11/26 11:28:11;;;;;;;25.40;13.80;;;7.60;99.90;;;;;;5072967;28;20460;-68
2022/11/26 11:30:39;;;;;;;22.83;11.67;;;7.60;99.90;;;;;;5073156;28;20516;-74
2022/11/26 11:33:19;;;;;;;16.93;12.50;;;7.50;99.90;;;;;;5073221;28;20471;-74
2022/11/26 11:35:57;;;;;;;21.13;10.83;;;7.40;99.90;;;;;;5072467;28;20396;-74
2022/11/26 11:38:26;;;;;;;19.23;10.93;;;7.40;99.90;;;;;;5073314;28;20404;-76
2022/11/26 11:40:52;;;;;;;18.93;12.30;;;7.30;99.90;;;;;;5073210;28;20416;-67
2022/11/26 11:43:21;;;;;;;20.03;11.97;;;7.20;99.90;;;;;;5073286;28;20400;-76
2022/11/26 11:46:01;;;;;;;20.07;12.40;;;7.30;99.90;;;;;;5072366;28;20448;-76
2022/11/26 11:48:33;;;;;;;17.63;11.80;;;7.30;99.90;;;;;;5072670;28;20429;-67
2022/11/26 11:51:08;;;;;;;19.90;13.43;;;7.40;99.90;;;;;;5073068;28;20408;-67
2022/11/26 11:53:52;;;;;;;26.30;11.77;;;7.40;99.90;;;;;;5075983;28;20911;-76
2022/11/26 11:56:27;;;;;;;21.70;12.97;;;7.40;99.90;;;;;;5076970;28;20503;-75
2022/11/26 11:59:20;;;;;;;17.87;11.83;;;7.40;99.90;;;;;;5077010;28;20404;-74
2022/11/26 12:02:09;;;;;;;21.07;12.10;;;7.30;99.90;;;;;;5077099;28;20408;-67
2022/11/26 12:04:47;;;;;;;26.53;11.33;;;7.30;99.90;;;;;;5076266;28;20450;-75
2022/11/26 12:07:25;;;;;;;17.60;11.90;;;7.30;99.90;;;;;;5076416;28;20460;-66
2022/11/26 12:10:07;;;;;;;16.23;11.10;;;7.40;99.90;;;;;;5076898;28;20452;-67
2022/11/26 12:12:37;;;;;;;16.43;10.50;;;7.40;99.90;;;;;;5077133;28;20408;-75
2022/11/26 12:15:25;;;;;;;16.57;11.07;;;7.50;99.90;;;;;;5075841;28;20407;-69
2022/11/26 12:18:02;;;;;;;21.80;12.57;;;7.40;99.90;;;;;;5076696;28;20427;-75
2022/11/26 12:20:35;;;;;;;20.43;12.33;;;7.40;99.90;;;;;;5076799;28;20407;-66
2022/11/26 12:23:26;;;;;;;23.90;13.27;;;7.40;99.90;;;;;;5076489;28;20411;-74
2022/11/26 12:26:15;;;;;;;21.97;13.07;;;7.40;99.90;;;;;;5075909;28;20423;-66
2022/11/26 12:29:11;;;;;;;21.93;12.40;;;7.40;99.90;;;;;;5069934;28;20602;-66
2022/11/26 12:31:39;;;;;;;24.87;12.57;;;7.40;99.90;;;;;;5074396;28;20416;-75
2022/11/26 12:34:22;;;;;;;19.40;12.27;;;7.50;99.90;;;;;;5075554;28;20819;-73
2022/11/26 12:36:55;;;;;;;24.13;11.73;;;7.60;99.90;;;;;;5076398;28;20424;-77
2022/11/26 12:39:39;;;;;;;22.23;12.97;;;7.60;99.90;;;;;;5076264;28;20416;-67
2022/11/26 12:42:31;;;;;;;17.10;11.67;;;7.70;99.90;;;;;;5076447;28;20436;-67
2022/11/26 12:45:22;;;;;;;24.37;11.60;;;7.80;99.90;;;;;;5075100;28;20400;-74
2022/11/26 12:48:09;;;;;;;22.20;12.67;;;7.80;99.90;;;;;;5068426;28;20439;-68
2022/11/26 12:50:41;;;;;;;19.07;13.17;;;7.70;99.90;;;;;;5076173;28;20430;-67
2022/11/26 12:53:21;;;;;;;24.07;12.27;;;7.70;99.90;;;;;;5076073;28;20901;-68
2022/11/26 12:56:23;;;;;;;25.43;11.57;;;7.70;99.90;;;;;;5075218;28;20924;-75
2022/11/26 12:59:12;;;;;;;18.70;12.40;;;7.70;99.90;;;;;;5076055;28;20467;-76
2022/11/26 13:01:38;;;;;;;23.77;12.70;;;7.70;99.90;;;;;;5075442;28;20423;-75
2022/11/26 13:04:04;;;;;;;21.30;12.70;;;7.80;99.90;;;;;;5073896;28;20394;-76